Time;durP1;ratioP1;P1;durP2;ratioP2;P2;SDS_P1;SDS_P2;PMS_P1;PMS_P2;Temp;Humidity;BMP_temperature;BMP_pressure;BME280_temperature;BME280_humidity;BME280_pressure;Samples;Min_cycle;Max_cycle;Signal;HPM_P1;HPM_P2
2022/11/03 00:00:10;;;;;;;9.40;2.55;;;8.70;71.60;;;;;;4211838;28;20032;-89
2022/11/03 00:02:11;;;;;;;18.92;2.47;;;8.70;71.70;;;;;;4224983;27;20036;-88
2022/11/03 00:04:17;;;;;;;13.32;1.75;;;8.70;71.70;;;;;;4230823;27;20513;-88
2022/11/03 00:06:18;;;;;;;7.18;1.27;;;8.80;71.80;;;;;;4198789;28;20032;-88
2022/11/03 00:08:18;;;;;;;21.05;2.20;;;8.70;71.70;;;;;;4223311;27;20039;-89
2022/11/03 00:10:19;;;;;;;11.85;1.92;;;8.90;71.90;;;;;;4224610;28;20040;-88
2022/11/03 00:12:19;;;;;;;13.55;1.95;;;8.70;71.70;;;;;;4226217;27;20031;-87
2022/11/03 00:14:20;;;;;;;12.63;2.00;;;8.70;71.80;;;;;;4225302;27;20024;-87
2022/11/03 00:16:21;;;;;;;9.45;1.42;;;8.80;71.90;;;;;;4211800;28;20085;-86
2022/11/03 00:18:21;;;;;;;13.65;1.90;;;8.70;71.80;;;;;;4228132;27;20031;-87
2022/11/03 00:20:22;;;;;;;8.55;1.33;;;8.70;71.70;;;;;;4224748;28;20050;-87
2022/11/03 00:22:23;;;;;;;13.10;1.98;;;8.70;71.70;;;;;;4221306;27;20047;-87
2022/11/03 00:24:23;;;;;;;6.72;1.70;;;8.80;71.70;;;;;;4225028;27;20050;-88
2022/11/03 00:26:29;;;;;;;11.45;1.50;;;8.70;71.70;;;;;;4224904;27;20027;-86
2022/11/03 00:28:32;;;;;;;11.60;1.65;;;8.80;71.70;;;;;;4239504;28;20079;-86
2022/11/03 00:30:33;;;;;;;9.43;1.85;;;8.80;71.60;;;;;;4218376;28;20039;-88
2022/11/03 00:32:34;;;;;;;11.77;2.05;;;8.70;71.50;;;;;;4222172;28;20111;-88
2022/11/03 00:34:34;;;;;;;9.93;1.70;;;8.70;71.40;;;;;;4225667;27;20020;-87
2022/11/03 00:36:40;;;;;;;7.80;1.45;;;8.70;71.40;;;;;;4208945;28;20028;-88
2022/11/03 00:38:43;;;;;;;18.52;1.92;;;8.70;71.40;;;;;;4207224;28;20850;-88
2022/11/03 00:40:44;;;;;;;15.48;1.90;;;8.70;71.30;;;;;;4221938;28;20027;-87
2022/11/03 00:42:45;;;;;;;11.52;1.88;;;8.70;71.30;;;;;;4228866;28;20059;-88
2022/11/03 00:44:45;;;;;;;8.85;1.77;;;8.80;71.60;;;;;;4207753;28;21573;-87
2022/11/03 00:46:46;;;;;;;15.60;2.13;;;8.60;71.20;;;;;;4231764;28;20038;-88
2022/11/03 00:48:47;;;;;;;11.15;1.83;;;8.80;71.40;;;;;;4229575;28;20461;-88
2022/11/03 00:50:48;;;;;;;9.32;1.65;;;8.70;71.30;;;;;;4224150;28;20055;-86
2022/11/03 00:52:48;;;;;;;15.05;1.98;;;8.70;71.30;;;;;;4218260;28;20515;-88
2022/11/03 00:54:49;;;;;;;11.70;1.70;;;8.80;71.40;;;;;;4226525;28;20036;-87
2022/11/03 00:56:50;;;;;;;13.55;1.75;;;8.70;71.20;;;;;;4225667;28;20024;-87
2022/11/03 00:58:52;;;;;;;16.30;2.22;;;8.70;71.30;;;;;;4230463;28;20748;-87
2022/11/03 01:01:07;;;;;;;8.85;1.60;;;8.60;71.20;;;;;;4232915;27;20038;-88
2022/11/03 01:03:08;;;;;;;10.73;1.98;;;8.70;71.30;;;;;;4222216;27;20526;-88
2022/11/03 01:07:28;;;;;;;13.70;1.50;;;8.70;71.30;;;;;;4228890;27;20024;-87
2022/11/03 01:09:33;;;;;;;9.38;1.73;;;8.60;71.30;;;;;;4211027;28;20039;-89
2022/11/03 01:11:42;;;;;;;11.82;1.98;;;8.70;71.40;;;;;;4229425;27;20085;-87
2022/11/03 01:13:43;;;;;;;10.00;1.60;;;8.80;71.50;;;;;;4224414;27;20518;-87
2022/11/03 01:15:44;;;;;;;11.85;2.08;;;8.60;71.40;;;;;;4211448;28;20031;-88
2022/11/03 01:17:44;;;;;;;10.98;1.63;;;8.60;71.40;;;;;;4226719;27;20072;-88
2022/11/03 01:19:45;;;;;;;11.20;2.00;;;8.60;72.20;;;;;;4224844;27;20422;-88
2022/11/03 01:21:46;;;;;;;8.70;1.73;;;8.60;71.50;;;;;;4207906;28;20135;-87
2022/11/03 01:23:47;;;;;;;10.60;1.77;;;8.60;71.50;;;;;;4221310;27;20028;-87
2022/11/03 01:25:48;;;;;;;11.70;2.05;;;8.60;71.50;;;;;;4225544;27;20081;-88
2022/11/03 01:27:48;;;;;;;13.45;1.83;;;8.70;71.60;;;;;;4209327;28;20494;-88
2022/11/03 01:29:49;;;;;;;13.07;1.75;;;8.60;71.60;;;;;;4203930;28;20093;-88
2022/11/03 01:31:50;;;;;;;12.18;1.52;;;8.60;71.60;;;;;;4223520;27;21209;-89
2022/11/03 01:33:53;;;;;;;14.82;1.77;;;8.70;71.60;;;;;;4205562;28;20672;-88
2022/11/03 01:35:55;;;;;;;12.13;1.88;;;8.70;71.60;;;;;;4240519;27;20024;-88
2022/11/03 01:37:55;;;;;;;6.95;1.85;;;8.70;71.70;;;;;;4222399;28;20057;-88
2022/11/03 01:39:56;;;;;;;15.73;1.80;;;8.70;71.60;;;;;;4228909;27;20093;-88
2022/11/03 01:41:56;;;;;;;9.52;1.70;;;8.80;71.70;;;;;;4224660;28;20031;-88
2022/11/03 01:44:17;;;;;;;10.73;1.60;;;8.70;71.60;;;;;;4229725;27;20068;-88
2022/11/03 01:46:48;;;;;;;12.90;2.00;;;8.70;71.60;;;;;;4224888;27;20077;-88
2022/11/03 01:48:59;;;;;;;14.52;2.10;;;8.80;71.60;;;;;;4228900;27;20031;-88
2022/11/03 01:51:03;;;;;;;9.57;1.70;;;8.70;71.50;;;;;;4222595;27;20737;-88
2022/11/03 01:53:03;;;;;;;;;;;8.70;71.50;;;;;;4231654;27;20570;-88
2022/11/03 01:55:11;;;;;;;11.82;1.90;;;8.70;71.40;;;;;;4216824;27;19958;-89
2022/11/03 01:57:19;;;;;;;7.28;1.65;;;8.70;71.30;;;;;;4210218;28;20112;-88
2022/11/03 01:59:22;;;;;;;14.52;1.83;;;8.70;71.30;;;;;;4229027;27;20112;-89
2022/11/03 02:01:23;;;;;;;8.20;1.88;;;8.80;71.40;;;;;;4243572;27;20040;-89
2022/11/03 02:03:27;;;;;;;9.15;1.55;;;8.80;71.40;;;;;;4225873;27;20130;-89
2022/11/03 02:05:29;;;;;;;9.43;1.42;;;8.80;71.40;;;;;;4208695;28;20070;-88
2022/11/03 02:07:36;;;;;;;10.75;1.80;;;8.80;71.40;;;;;;4203663;28;20427;-88
2022/11/03 02:09:36;;;;;;;11.15;1.92;;;8.70;71.30;;;;;;4231089;27;20099;-88
2022/11/03 02:13:57;;;;;;;11.00;1.48;;;8.80;71.40;;;;;;4221794;27;20023;-89
2022/11/03 02:15:58;;;;;;;10.27;1.55;;;8.80;71.30;;;;;;4223651;27;20101;-88
2022/11/03 02:18:01;;;;;;;19.08;2.95;;;8.80;71.30;;;;;;4207499;28;20028;-87
2022/11/03 02:20:14;;;;;;;8.77;1.73;;;8.80;71.30;;;;;;4224327;27;20084;-88
2022/11/03 02:22:36;;;;;;;14.32;1.85;;;8.80;71.20;;;;;;4224927;27;20027;-89
2022/11/03 02:24:51;;;;;;;11.15;2.17;;;8.80;71.20;;;;;;4216810;27;20646;-88
2022/11/03 02:26:55;;;;;;;10.07;1.63;;;8.80;71.10;;;;;;4222045;27;20034;-89
2022/11/03 02:29:16;;;;;;;16.00;2.00;;;8.80;71.10;;;;;;4227150;27;20070;-89
2022/11/03 02:31:45;;;;;;;10.52;1.67;;;8.80;71.10;;;;;;4226820;27;20019;-89
2022/11/03 02:33:53;;;;;;;8.70;1.73;;;8.80;71.00;;;;;;4221861;27;20106;-90
2022/11/03 02:36:26;;;;;;;11.10;1.92;;;8.80;71.10;;;;;;4233072;27;20035;-88
2022/11/03 02:39:05;;;;;;;13.75;2.38;;;8.80;71.10;;;;;;4229166;27;20026;-88
2022/11/03 02:41:08;;;;;;;12.32;1.70;;;8.80;71.00;;;;;;4225139;27;20031;-88
2022/11/03 02:43:09;;;;;;;;;;;8.80;71.00;;;;;;4209520;28;20499;-87
2022/11/03 02:45:14;;;;;;;11.40;1.75;;;8.90;71.10;;;;;;4206231;28;20442;-88
2022/11/03 02:47:17;;;;;;;9.50;1.60;;;8.80;71.70;;;;;;4225357;27;20027;-87
2022/11/03 02:49:45;;;;;;;12.90;1.77;;;8.80;71.00;;;;;;4218529;27;20032;-87
2022/11/03 02:51:46;;;;;;;12.57;2.20;;;8.80;71.00;;;;;;4224458;28;20031;-88
2022/11/03 02:54:25;;;;;;;11.50;2.25;;;8.80;71.00;;;;;;4226421;27;20140;-88
2022/11/03 02:56:27;;;;;;;13.32;2.30;;;8.80;71.10;;;;;;4208365;28;20020;-87
2022/11/03 02:59:01;;;;;;;9.55;1.77;;;8.80;71.10;;;;;;4228501;27;20039;-88
2022/11/03 03:01:45;;;;;;;9.93;2.05;;;8.80;71.10;;;;;;4216129;27;20090;-87
2022/11/03 03:04:08;;;;;;;12.15;2.25;;;8.80;71.00;;;;;;4223786;27;20045;-88
2022/11/03 03:06:35;;;;;;;12.07;1.90;;;8.80;71.00;;;;;;4224581;27;20408;-88
2022/11/03 03:09:00;;;;;;;16.75;2.20;;;8.80;71.00;;;;;;4224502;27;20125;-89
2022/11/03 03:11:35;;;;;;;9.63;1.92;;;8.80;71.00;;;;;;4224217;27;20494;-87
2022/11/03 03:13:56;;;;;;;8.82;1.75;;;8.80;71.00;;;;;;4226377;27;20035;-89
2022/11/03 03:16:28;;;;;;;13.40;2.17;;;8.90;71.00;;;;;;4228599;27;21693;-88
2022/11/03 03:18:53;;;;;;;16.23;1.75;;;8.80;71.00;;;;;;4235960;27;20384;-88
2022/11/03 03:21:28;;;;;;;13.95;2.00;;;8.90;71.00;;;;;;4226055;27;20391;-88
2022/11/03 03:24:18;;;;;;;14.18;1.83;;;8.80;70.90;;;;;;4226503;27;20024;-88
2022/11/03 03:26:45;;;;;;;8.95;1.80;;;8.80;70.90;;;;;;4228398;27;20030;-88
2022/11/03 03:29:10;;;;;;;8.32;1.60;;;8.80;70.90;;;;;;4218642;28;20386;-89
2022/11/03 03:31:35;;;;;;;10.57;1.90;;;8.70;70.80;;;;;;4241973;27;20095;-88
2022/11/03 03:33:58;;;;;;;8.73;1.90;;;8.70;70.80;;;;;;4231922;27;20428;-88
2022/11/03 03:36:21;;;;;;;9.40;1.67;;;8.70;70.90;;;;;;4223435;28;20062;-89
2022/11/03 03:38:59;;;;;;;12.52;1.92;;;8.70;70.90;;;;;;4224824;27;20550;-88
2022/11/03 03:41:22;;;;;;;19.08;2.10;;;8.70;70.90;;;;;;4223363;27;20569;-88
2022/11/03 03:43:43;;;;;;;17.10;2.30;;;8.70;70.90;;;;;;4229384;28;20036;-88
2022/11/03 03:46:07;;;;;;;11.48;1.42;;;8.70;70.90;;;;;;4232900;27;20761;-88
2022/11/03 03:48:27;;;;;;;;;;;8.70;70.90;;;;;;4227428;27;20088;-88
2022/11/03 03:50:49;;;;;;;12.40;1.40;;;8.70;71.00;;;;;;4226280;27;20520;-89
2022/11/03 03:53:12;;;;;;;7.47;1.38;;;8.70;70.80;;;;;;4222864;27;20480;-88
2022/11/03 03:55:36;;;;;;;12.77;1.95;;;8.80;71.00;;;;;;4220631;28;20575;-87
2022/11/03 03:57:57;;;;;;;12.25;1.73;;;8.70;70.90;;;;;;4216655;27;20508;-88
2022/11/03 04:00:18;;;;;;;11.38;2.13;;;8.70;70.90;;;;;;4219734;27;20031;-88
2022/11/03 04:02:38;;;;;;;12.38;1.85;;;8.70;71.00;;;;;;4226013;27;20042;-88
2022/11/03 04:04:59;;;;;;;7.95;1.50;;;8.70;71.00;;;;;;4222975;27;20354;-89
2022/11/03 04:09:59;;;;;;;10.65;1.73;;;8.70;71.10;;;;;;4222011;27;20023;-87
2022/11/03 04:22:32;;;;;;;11.65;1.60;;;8.70;71.20;;;;;;4222909;27;20032;-88
2022/11/03 04:24:33;;;;;;;10.90;1.88;;;8.70;71.20;;;;;;4225648;27;20024;-88
2022/11/03 04:26:33;;;;;;;9.65;1.80;;;8.70;71.20;;;;;;4224159;27;20578;-88
2022/11/03 04:28:34;;;;;;;8.65;1.75;;;8.70;71.20;;;;;;4225192;28;20106;-88
2022/11/03 04:30:35;;;;;;;12.48;1.60;;;8.70;72.00;;;;;;4225065;27;20020;-87
2022/11/03 04:32:36;;;;;;;10.32;1.55;;;8.80;71.30;;;;;;4223457;27;20586;-88
2022/11/03 04:34:36;;;;;;;13.38;1.80;;;8.70;72.00;;;;;;4230253;27;20030;-88
2022/11/03 04:36:37;;;;;;;7.28;1.50;;;8.60;71.20;;;;;;4228972;27;20034;-88
2022/11/03 04:38:38;;;;;;;10.80;1.90;;;8.60;71.20;;;;;;4224446;27;20104;-88
2022/11/03 04:40:47;;;;;;;18.23;2.13;;;8.70;71.30;;;;;;4219925;27;20024;-88
2022/11/03 04:42:47;;;;;;;8.10;1.70;;;8.60;71.30;;;;;;4223013;28;20051;-88
2022/11/03 04:44:50;;;;;;;7.72;1.60;;;8.60;71.30;;;;;;4206586;28;20570;-88
2022/11/03 04:46:53;;;;;;;11.13;1.88;;;8.60;71.30;;;;;;4222657;27;20035;-87
2022/11/03 04:49:21;;;;;;;10.07;1.58;;;8.60;72.00;;;;;;4222935;27;20032;-88
2022/11/03 04:51:28;;;;;;;11.13;1.90;;;8.60;71.30;;;;;;4227829;28;20388;-89
2022/11/03 04:53:57;;;;;;;10.32;1.65;;;8.60;71.30;;;;;;4232323;27;20059;-88
2022/11/03 04:56:22;;;;;;;12.00;1.63;;;8.60;71.30;;;;;;4224277;27;20038;-88
2022/11/03 04:58:39;;;;;;;8.10;1.90;;;8.60;71.30;;;;;;4212588;28;20538;-88
2022/11/03 05:01:01;;;;;;;7.85;1.55;;;8.70;71.30;;;;;;4221681;28;20015;-89
2022/11/03 05:03:28;;;;;;;16.20;2.05;;;8.60;71.30;;;;;;4228197;28;20089;-88
2022/11/03 05:05:43;;;;;;;8.50;1.50;;;8.60;71.30;;;;;;4214137;28;20053;-87
2022/11/03 05:08:08;;;;;;;9.93;1.70;;;8.60;71.30;;;;;;4233143;28;20040;-88
2022/11/03 05:10:29;;;;;;;12.90;1.55;;;8.60;71.30;;;;;;4223763;28;20077;-87
2022/11/03 05:12:50;;;;;;;15.73;1.90;;;8.60;71.30;;;;;;4223774;28;20024;-87
2022/11/03 05:15:36;;;;;;;8.85;1.98;;;8.60;71.30;;;;;;4227129;28;20024;-88
2022/11/03 05:17:59;;;;;;;9.88;1.60;;;8.60;71.30;;;;;;4226448;28;20042;-88
2022/11/03 05:20:38;;;;;;;9.52;1.50;;;8.60;71.40;;;;;;4221452;28;20063;-89
2022/11/03 05:23:00;;;;;;;10.70;1.58;;;8.60;71.30;;;;;;4232632;27;20031;-88
2022/11/03 05:25:39;;;;;;;9.38;1.67;;;8.60;71.30;;;;;;4224543;28;20027;-89
2022/11/03 05:28:00;;;;;;;11.48;1.90;;;8.60;71.40;;;;;;4228160;28;20024;-88
2022/11/03 05:30:20;;;;;;;11.25;1.55;;;8.60;71.40;;;;;;4218011;28;20596;-88
2022/11/03 05:32:41;;;;;;;10.65;1.85;;;8.60;71.40;;;;;;4226320;28;20027;-89
2022/11/03 05:35:03;;;;;;;10.45;1.50;;;8.50;71.30;;;;;;4220553;28;20112;-89
2022/11/03 05:37:29;;;;;;;13.07;2.00;;;8.50;71.30;;;;;;4223804;28;20096;-89
2022/11/03 05:39:52;;;;;;;12.45;1.65;;;8.70;71.50;;;;;;4227739;28;20415;-90
2022/11/03 05:42:22;;;;;;;16.35;2.03;;;8.60;71.40;;;;;;4224550;28;20028;-87
2022/11/03 05:44:44;;;;;;;17.05;1.85;;;8.50;71.30;;;;;;4226577;28;20028;-88
2022/11/03 05:47:30;;;;;;;7.47;1.70;;;8.50;71.30;;;;;;4224129;28;20061;-87
2022/11/03 05:49:55;;;;;;;12.02;2.17;;;8.50;71.30;;;;;;4235675;27;20506;-88
2022/11/03 05:52:25;;;;;;;9.90;1.80;;;8.50;71.30;;;;;;4238098;27;20027;-88
2022/11/03 05:54:46;;;;;;;7.45;1.75;;;8.50;71.30;;;;;;4224037;28;20088;-88
2022/11/03 05:57:17;;;;;;;9.70;1.92;;;8.50;71.30;;;;;;4222065;27;20356;-88
2022/11/03 05:59:37;;;;;;;10.80;1.50;;;8.50;71.30;;;;;;4229269;27;20035;-89
2022/11/03 06:01:59;;;;;;;10.60;1.90;;;8.50;71.30;;;;;;4229423;27;20047;-88
2022/11/03 06:04:23;;;;;;;5.90;1.52;;;8.50;71.30;;;;;;4233469;27;20149;-88
2022/11/03 06:06:52;;;;;;;18.02;1.48;;;8.50;71.40;;;;;;4228863;27;20032;-88
2022/11/03 06:09:19;;;;;;;9.63;1.50;;;8.50;71.40;;;;;;4231665;27;20031;-88
2022/11/03 06:11:43;;;;;;;8.63;2.22;;;8.50;71.40;;;;;;4225658;27;20109;-87
2022/11/03 06:14:23;;;;;;;12.98;1.52;;;8.50;71.50;;;;;;4233975;27;20027;-86
2022/11/03 06:16:48;;;;;;;12.07;1.88;;;8.50;71.50;;;;;;4230752;27;20027;-86
2022/11/03 06:19:31;;;;;;;11.10;1.85;;;8.50;71.40;;;;;;4228890;27;20160;-87
2022/11/03 06:21:55;;;;;;;14.93;1.80;;;8.50;71.40;;;;;;4221262;28;20031;-87
2022/11/03 06:24:18;;;;;;;14.68;2.05;;;8.50;71.40;;;;;;4229043;28;20407;-86
2022/11/03 06:26:37;;;;;;;11.15;1.75;;;8.50;71.40;;;;;;4232885;27;20430;-88
2022/11/03 06:28:59;;;;;;;10.07;1.25;;;8.50;71.40;;;;;;4230731;27;20111;-87
2022/11/03 06:31:27;;;;;;;10.48;1.70;;;8.50;71.40;;;;;;4233480;27;20042;-86
2022/11/03 06:33:48;;;;;;;11.25;1.67;;;8.50;71.50;;;;;;4230705;27;20046;-87
2022/11/03 06:36:30;;;;;;;10.60;1.63;;;8.50;71.40;;;;;;4227845;27;20496;-87
2022/11/03 06:39:07;;;;;;;13.05;1.48;;;8.50;71.50;;;;;;4230857;27;20530;-87
2022/11/03 06:41:31;;;;;;;14.90;1.73;;;8.50;71.50;;;;;;4247059;27;20448;-86
2022/11/03 06:43:51;;;;;;;14.43;1.23;;;8.50;71.50;;;;;;4230114;27;20027;-87
2022/11/03 06:46:19;;;;;;;12.82;2.17;;;8.60;71.60;;;;;;4229508;28;20312;-87
2022/11/03 06:48:39;;;;;;;11.93;2.25;;;8.50;71.60;;;;;;4233294;27;20042;-87
2022/11/03 06:50:59;;;;;;;13.38;1.95;;;8.60;71.60;;;;;;4228066;27;20077;-87
2022/11/03 06:53:22;;;;;;;8.75;1.77;;;8.50;71.60;;;;;;4235346;27;20065;-87
2022/11/03 06:55:42;;;;;;;10.20;1.58;;;8.50;71.70;;;;;;4237920;27;20046;-86
2022/11/03 06:58:42;;;;;;;9.18;1.70;;;8.50;71.70;;;;;;4233958;27;20053;-87
2022/11/03 07:01:11;;;;;;;11.75;1.75;;;8.50;71.80;;;;;;4172161;28;20570;-87
2022/11/03 07:03:29;;;;;;;14.40;1.75;;;8.60;71.90;;;;;;4175045;28;20561;-87
2022/11/03 07:05:31;;;;;;;13.90;2.20;;;8.60;71.90;;;;;;4160811;28;20064;-87
2022/11/03 07:07:32;;;;;;;11.98;1.70;;;8.70;72.00;;;;;;4178232;28;20036;-85
2022/11/03 07:09:33;;;;;;;8.85;1.63;;;8.60;72.00;;;;;;4181087;28;20491;-86
2022/11/03 07:11:39;;;;;;;10.48;1.75;;;8.60;72.00;;;;;;4161202;28;20029;-86
2022/11/03 07:13:41;;;;;;;10.55;1.65;;;8.70;72.10;;;;;;4171608;28;20513;-87
2022/11/03 07:15:44;;;;;;;11.80;1.60;;;8.70;72.10;;;;;;4172912;28;20029;-87
2022/11/03 07:17:45;;;;;;;13.82;1.52;;;8.80;72.20;;;;;;4176115;28;20045;-87
2022/11/03 07:20:13;;;;;;;11.73;1.70;;;8.70;72.10;;;;;;4173305;28;20040;-87
2022/11/03 07:22:22;;;;;;;7.20;1.70;;;8.80;72.10;;;;;;4158966;28;20034;-86
2022/11/03 07:24:58;;;;;;;10.00;1.60;;;8.80;72.10;;;;;;4140177;28;20038;-86
2022/11/03 07:27:19;;;;;;;7.80;1.55;;;8.80;72.10;;;;;;4111921;28;20436;-87
2022/11/03 07:29:24;;;;;;;13.00;2.20;;;8.90;72.10;;;;;;4096481;28;20019;-86
2022/11/03 07:31:26;;;;;;;12.32;1.63;;;8.90;72.10;;;;;;4091267;29;20247;-87
2022/11/03 07:33:34;;;;;;;16.63;1.92;;;8.90;72.00;;;;;;4087704;28;20019;-87
2022/11/03 07:35:44;;;;;;;9.73;1.95;;;9.10;72.10;;;;;;4108652;28;20451;-87
2022/11/03 07:38:14;;;;;;;6.82;1.90;;;9.00;72.00;;;;;;4140060;28;20028;-87
2022/11/03 07:40:22;;;;;;;11.77;1.70;;;9.00;71.90;;;;;;4142828;28;20026;-87
2022/11/03 07:42:43;;;;;;;15.80;1.83;;;9.00;71.90;;;;;;4129862;28;20113;-87
2022/11/03 07:45:41;;;;;;;7.85;1.42;;;9.10;71.80;;;;;;4146851;28;20045;-87
2022/11/03 07:48:09;;;;;;;12.65;1.60;;;9.10;71.70;;;;;;4147758;28;20029;-87
2022/11/03 07:50:30;;;;;;;12.45;1.92;;;9.10;71.60;;;;;;4144471;28;20025;-87
2022/11/03 07:52:42;;;;;;;9.45;2.05;;;9.20;71.60;;;;;;4125688;28;20099;-86
2022/11/03 07:55:09;;;;;;;9.10;1.60;;;9.20;71.50;;;;;;4143972;28;20115;-87
2022/11/03 07:57:32;;;;;;;14.65;2.08;;;9.20;71.40;;;;;;4139823;28;20045;-87
2022/11/03 07:59:39;;;;;;;14.52;2.03;;;9.20;71.40;;;;;;4151661;28;20025;-87
2022/11/03 08:02:01;;;;;;;6.10;1.30;;;9.20;71.30;;;;;;4151240;28;20057;-87
2022/11/03 08:04:28;;;;;;;10.52;1.55;;;9.30;71.30;;;;;;4224792;27;20039;-88
2022/11/03 08:06:50;;;;;;;15.05;1.75;;;9.30;71.20;;;;;;4224112;28;20185;-87
2022/11/03 08:09:11;;;;;;;9.00;1.75;;;9.30;71.20;;;;;;4229761;27;20024;-87
2022/11/03 08:11:32;;;;;;;9.77;1.80;;;9.30;71.10;;;;;;4227056;27;20023;-87
2022/11/03 08:13:53;;;;;;;9.55;1.52;;;9.30;71.00;;;;;;4211910;27;20472;-87
2022/11/03 08:16:13;;;;;;;12.63;2.15;;;9.30;71.00;;;;;;4230676;27;20040;-86
2022/11/03 08:18:35;;;;;;;5.40;1.35;;;9.40;71.00;;;;;;4231498;27;20112;-87
2022/11/03 08:20:56;;;;;;;8.57;1.83;;;9.40;71.00;;;;;;4228998;27;20088;-87
2022/11/03 08:23:17;;;;;;;12.30;1.70;;;9.40;71.00;;;;;;4228161;27;20088;-85
2022/11/03 08:25:38;;;;;;;5.97;1.38;;;9.40;71.00;;;;;;4227462;27;20027;-87
2022/11/03 08:28:00;;;;;;;10.48;1.88;;;9.40;71.00;;;;;;4223528;27;20101;-87
2022/11/03 08:30:21;;;;;;;6.53;1.55;;;9.40;71.00;;;;;;4226476;27;20030;-87
2022/11/03 08:32:41;;;;;;;11.02;2.08;;;9.40;71.00;;;;;;4222370;28;20204;-87
2022/11/03 08:35:02;;;;;;;11.55;1.90;;;9.40;71.00;;;;;;4227196;27;20023;-87
2022/11/03 08:37:23;;;;;;;9.70;1.50;;;9.50;71.10;;;;;;4223776;27;20036;-87
2022/11/03 08:39:43;;;;;;;11.73;1.85;;;9.50;71.20;;;;;;4225811;28;20030;-87
2022/11/03 08:42:04;;;;;;;8.98;1.60;;;9.50;71.20;;;;;;4225895;28;20024;-87
2022/11/03 08:44:24;;;;;;;9.40;2.03;;;9.50;71.10;;;;;;4228712;28;20023;-87
2022/11/03 08:46:45;;;;;;;12.65;2.05;;;9.60;71.20;;;;;;4223760;28;20032;-88
2022/11/03 08:49:06;;;;;;;10.10;2.00;;;9.60;71.20;;;;;;4223829;28;20020;-87
2022/11/03 08:51:26;;;;;;;10.23;1.80;;;9.60;71.10;;;;;;4225160;28;20027;-86
2022/11/03 08:53:51;;;;;;;11.95;1.83;;;9.70;71.20;;;;;;4229339;28;20034;-86
2022/11/03 08:56:11;;;;;;;14.15;1.65;;;9.70;71.20;;;;;;4227406;28;20113;-87
2022/11/03 08:58:32;;;;;;;10.30;1.90;;;9.70;71.20;;;;;;4226306;28;20028;-87
2022/11/03 09:00:53;;;;;;;7.85;1.75;;;9.70;71.20;;;;;;4223135;28;20127;-87
2022/11/03 09:03:14;;;;;;;9.27;1.80;;;9.80;71.20;;;;;;4225193;28;20036;-87
2022/11/03 09:05:35;;;;;;;11.38;2.17;;;9.90;71.30;;;;;;4225996;28;20492;-87
2022/11/03 09:07:55;;;;;;;11.52;1.63;;;9.90;71.30;;;;;;4224806;28;20039;-87
2022/11/03 09:10:16;;;;;;;13.20;1.85;;;10.00;71.30;;;;;;4227517;28;20494;-87
2022/11/03 09:12:37;;;;;;;12.00;2.05;;;10.00;71.20;;;;;;4225543;28;20728;-87
2022/11/03 09:14:57;;;;;;;9.27;1.95;;;10.00;71.30;;;;;;4228154;28;20395;-87
2022/11/03 09:17:18;;;;;;;6.65;1.83;;;10.00;71.00;;;;;;4227204;28;20458;-86
2022/11/03 09:19:38;;;;;;;11.38;1.83;;;10.10;71.10;;;;;;4226644;28;20032;-86
2022/11/03 09:21:59;;;;;;;9.38;1.80;;;10.10;71.10;;;;;;4219725;28;20447;-87
2022/11/03 09:24:20;;;;;;;12.13;2.03;;;10.20;71.10;;;;;;4226518;27;20028;-88
2022/11/03 09:26:40;;;;;;;8.25;1.55;;;10.20;71.10;;;;;;4230408;27;20466;-86
2022/11/03 09:29:01;;;;;;;10.45;1.88;;;10.20;71.10;;;;;;4231512;27;20109;-87
2022/11/03 09:31:24;;;;;;;11.55;2.33;;;10.30;71.00;;;;;;4232337;27;20450;-87
2022/11/03 09:33:45;;;;;;;6.88;1.73;;;10.40;71.10;;;;;;4226270;27;20027;-87
2022/11/03 09:36:06;;;;;;;9.55;1.80;;;10.50;71.10;;;;;;4232292;27;20575;-87
2022/11/03 09:38:26;;;;;;;9.38;1.67;;;10.50;71.00;;;;;;4228007;27;20481;-87
2022/11/03 09:40:47;;;;;;;13.90;1.95;;;10.60;70.90;;;;;;4222164;28;20621;-88
2022/11/03 09:43:08;;;;;;;13.13;2.00;;;10.60;70.90;;;;;;4227702;27;20404;-87
2022/11/03 09:45:27;;;;;;;15.18;2.05;;;10.60;70.80;;;;;;4234537;27;20455;-87
2022/11/03 09:47:46;;;;;;;11.25;2.00;;;10.70;70.60;;;;;;4228832;27;20085;-88
2022/11/03 09:50:10;;;;;;;7.72;1.60;;;10.80;70.70;;;;;;4246948;27;20031;-88
2022/11/03 09:52:30;;;;;;;8.57;1.90;;;10.80;70.60;;;;;;4232889;27;20530;-87
2022/11/03 09:54:53;;;;;;;11.95;1.92;;;10.80;70.60;;;;;;4229931;27;20064;-87
2022/11/03 09:57:15;;;;;;;5.32;1.63;;;10.90;70.60;;;;;;4228261;27;20133;-87
2022/11/03 09:59:36;;;;;;;7.53;1.90;;;10.90;70.60;;;;;;4230943;27;20506;-87
2022/11/03 10:01:56;;;;;;;10.63;2.33;;;11.10;70.60;;;;;;4226484;27;20042;-87
2022/11/03 10:04:18;;;;;;;9.82;1.90;;;11.10;70.50;;;;;;4232743;27;20152;-88
2022/11/03 10:06:38;;;;;;;13.32;2.03;;;11.20;70.40;;;;;;4226601;27;20079;-87
2022/11/03 10:08:58;;;;;;;10.80;2.10;;;11.10;70.90;;;;;;4226690;27;20132;-87
2022/11/03 10:11:17;;;;;;;11.65;2.00;;;11.20;70.10;;;;;;4226831;27;20038;-88
2022/11/03 10:13:44;;;;;;;15.27;2.20;;;11.30;70.10;;;;;;4231252;27;20049;-88
2022/11/03 10:16:07;;;;;;;10.95;2.03;;;11.30;69.90;;;;;;4232018;27;20150;-87
2022/11/03 10:18:27;;;;;;;10.73;1.60;;;11.40;69.70;;;;;;4229651;27;20544;-87
2022/11/03 10:20:47;;;;;;;6.32;1.58;;;11.40;69.60;;;;;;4228538;27;20094;-88
2022/11/03 10:23:07;;;;;;;10.88;1.75;;;11.40;69.40;;;;;;4229896;27;20873;-87
2022/11/03 10:25:43;;;;;;;10.35;2.05;;;11.50;69.40;;;;;;4232171;27;20038;-87
2022/11/03 10:28:25;;;;;;;9.82;1.45;;;11.50;69.20;;;;;;4235471;27;20027;-86
2022/11/03 10:30:53;;;;;;;11.90;1.77;;;11.50;69.20;;;;;;4227795;27;20070;-87
2022/11/03 10:33:33;;;;;;;14.98;1.90;;;11.60;69.10;;;;;;4232238;27;20026;-88
2022/11/03 10:35:52;;;;;;;9.77;1.80;;;11.70;69.00;;;;;;4230395;27;20514;-88
2022/11/03 10:38:35;;;;;;;9.00;2.08;;;11.70;69.00;;;;;;4231133;27;20084;-87
2022/11/03 10:40:55;;;;;;;10.23;1.63;;;11.70;68.70;;;;;;4243325;27;20109;-88
2022/11/03 10:43:14;;;;;;;4.53;1.15;;;11.80;69.00;;;;;;4227982;27;20080;-87
2022/11/03 10:45:33;;;;;;;13.95;2.10;;;11.90;69.00;;;;;;4231772;27;20061;-88
2022/11/03 10:48:00;;;;;;;12.45;1.90;;;11.80;68.90;;;;;;4231688;27;20135;-86
2022/11/03 10:50:25;;;;;;;12.88;1.98;;;11.90;68.80;;;;;;4233522;27;20035;-88
2022/11/03 10:52:44;;;;;;;10.98;1.92;;;12.00;68.70;;;;;;4233160;27;20234;-88
2022/11/03 10:55:04;;;;;;;13.60;1.90;;;11.90;69.40;;;;;;4239360;27;20031;-88
2022/11/03 10:57:25;;;;;;;9.90;1.58;;;11.90;68.50;;;;;;4228382;27;20043;-88
2022/11/03 10:59:47;;;;;;;11.52;2.00;;;12.00;68.40;;;;;;4229132;27;20098;-87
2022/11/03 11:02:25;;;;;;;11.88;1.90;;;12.10;68.30;;;;;;4227723;27;20069;-88
2022/11/03 11:04:51;;;;;;;12.00;2.13;;;12.10;67.90;;;;;;4226803;27;20125;-87
2022/11/03 11:07:24;;;;;;;10.38;1.75;;;12.10;68.00;;;;;;4224434;28;20062;-88
2022/11/03 11:09:44;;;;;;;11.07;2.05;;;12.10;67.80;;;;;;4228204;27;20077;-88
2022/11/03 11:12:16;;;;;;;9.02;2.30;;;12.10;67.90;;;;;;4228277;27;20062;-87
2022/11/03 11:14:38;;;;;;;14.68;2.00;;;12.20;67.70;;;;;;4230312;27;20070;-88
2022/11/03 11:16:58;;;;;;;8.70;1.90;;;12.20;67.70;;;;;;4226076;27;20784;-88
2022/11/03 11:19:19;;;;;;;7.47;1.63;;;12.20;67.70;;;;;;4228108;27;20035;-88
2022/11/03 11:21:38;;;;;;;9.75;1.88;;;12.20;67.60;;;;;;4228163;27;20026;-86
2022/11/03 11:23:57;;;;;;;11.20;1.90;;;12.20;67.50;;;;;;4241260;28;20047;-88
2022/11/03 11:26:25;;;;;;;8.52;1.73;;;12.30;67.50;;;;;;4225221;27;20169;-87
2022/11/03 11:28:45;;;;;;;9.55;2.00;;;12.40;67.40;;;;;;4231098;27;20042;-87
2022/11/03 11:31:30;;;;;;;7.63;2.28;;;12.30;67.30;;;;;;4228709;27;20031;-88
2022/11/03 11:33:49;;;;;;;;;;;12.30;67.00;;;;;;4226657;27;20077;-88
2022/11/03 11:36:23;;;;;;;9.75;1.70;;;12.40;67.00;;;;;;4229377;27;19914;-88
2022/11/03 11:38:51;;;;;;;5.90;1.77;;;12.40;67.10;;;;;;4229179;27;20620;-88
2022/11/03 11:41:10;;;;;;;8.02;1.73;;;12.50;67.30;;;;;;4232857;28;20070;-88
2022/11/03 11:43:29;;;;;;;8.82;1.73;;;12.40;67.30;;;;;;4236340;27;20057;-88
2022/11/03 11:46:19;;;;;;;10.82;1.73;;;12.40;67.20;;;;;;4235904;27;20062;-88
2022/11/03 11:48:39;;;;;;;11.80;1.67;;;12.50;67.20;;;;;;4226855;27;20034;-88
2022/11/03 11:50:59;;;;;;;9.45;1.65;;;12.60;67.50;;;;;;4225911;28;20458;-88
2022/11/03 11:53:21;;;;;;;11.25;1.73;;;12.50;67.30;;;;;;4226348;27;20030;-88
2022/11/03 11:55:49;;;;;;;8.93;1.95;;;12.50;67.10;;;;;;4226997;27;20070;-88
2022/11/03 11:58:25;;;;;;;11.77;1.70;;;12.50;67.00;;;;;;4228762;27;20062;-88
2022/11/03 12:00:56;;;;;;;6.82;1.52;;;12.50;66.70;;;;;;4232483;27;20560;-88
2022/11/03 12:03:16;;;;;;;7.38;1.70;;;12.60;66.80;;;;;;4228334;27;20043;-88
2022/11/03 12:05:35;;;;;;;13.15;1.80;;;12.70;66.90;;;;;;4229854;27;20038;-88
2022/11/03 12:07:55;;;;;;;7.72;1.52;;;12.60;66.70;;;;;;4229881;27;20791;-88
2022/11/03 12:10:29;;;;;;;7.45;1.70;;;12.60;66.60;;;;;;4233897;27;20111;-88
2022/11/03 12:12:48;;;;;;;;;;;12.60;66.50;;;;;;4243362;27;20030;-88
2022/11/03 12:15:45;;;;;;;8.98;1.80;;;12.70;67.30;;;;;;4227493;27;19958;-88
2022/11/03 12:18:34;;;;;;;10.48;1.73;;;12.60;66.30;;;;;;4228622;27;20480;-88